Погода Райвиона 2 недели

Республика Карелия, Россия

21 июля-03 августа
  • 21июля
    Сегодня
    +14°
    +26°
    Ясно и безоблачно
    ВремяПогодаТемператураВлажностьДавлениеВетер, м/сВероятность осадков
    00:00Облачно с прояснениями+16°C97 %756 мм3.0 м/с5 %
    03:00Практически безоблачно+15°C98 %756 мм2.9 м/с6 %
    06:00Пасмурно, сплошная облачность+16°C94 %757 мм3.1 м/с6 %
    09:00Пасмурно, сплошная облачность+19°C84 %757 мм3.8 м/с23 %
    12:00Практически безоблачно+24°C68 %757 мм3.6 м/с21 %
    15:00Ясно и безоблачно+25°C66 %757 мм2.9 м/с47 %
    18:00Практически безоблачно+25°C62 %757 мм3.1 м/с19 %
    21:00Ясно и безоблачно+21°C71 %757 мм3.5 м/с5 %
  • 22июля
    Понедельник
    +14°
    +25°
    Ясно и безоблачно
    ВремяПогодаТемператураВлажностьДавлениеВетер, м/сВероятность осадков
    00:00Ясно и безоблачно+17°C75 %758 мм3.1 м/с2 %
    03:00Ясно и безоблачно+15°C86 %759 мм3.1 м/с2 %
    06:00Ясно и безоблачно+15°C88 %759 мм2.9 м/с2 %
    09:00Ясно и безоблачно+20°C74 %759 мм2.4 м/с2 %
    12:00Ясно и безоблачно+23°C55 %760 мм2.9 м/с2 %
    15:00Ясно и безоблачно+24°C46 %760 мм2.2 м/с2 %
    18:00Ясно и безоблачно+25°C51 %759 мм1.6 м/с2 %
    21:00Ясно и безоблачно+20°C74 %760 мм1.4 м/с2 %
  • 23июля
    Вторник
    +13°
    +25°
    Ясно и безоблачно
    ВремяПогодаТемператураВлажностьДавлениеВетер, м/сВероятность осадков
    00:00Ясно и безоблачно+16°C78 %760 мм3.1 м/с2 %
    03:00Ясно и безоблачно+15°C88 %761 мм2.0 м/с2 %
    06:00Ясно и безоблачно+16°C90 %761 мм2.2 м/с2 %
    09:00Ясно и безоблачно+20°C73 %760 мм2.2 м/с2 %
    12:00Ясно и безоблачно+23°C60 %761 мм2.7 м/с2 %
    15:00Ясно и безоблачно+24°C52 %761 мм2.6 м/с2 %
    18:00Ясно и безоблачно+25°C49 %760 мм1.3 м/с2 %
    21:00Ясно и безоблачно+19°C83 %759 мм1.1 м/с2 %
  • 24июля
    Среда
    +13°
    +26°
    Ясно и безоблачно
    ВремяПогодаТемператураВлажностьДавлениеВетер, м/сВероятность осадков
    00:00Ясно и безоблачно+15°C86 %760 мм2.0 м/с2 %
    03:00Ясно и безоблачно+14°C87 %760 мм2.2 м/с2 %
    06:00Ясно и безоблачно+17°C90 %759 мм1.4 м/с2 %
    09:00Ясно и безоблачно+21°C75 %759 мм1.6 м/с2 %
    12:00Ясно и безоблачно+24°C59 %759 мм2.2 м/с2 %
    15:00Ясно и безоблачно+25°C52 %759 мм2.1 м/с3 %
    18:00Ясно и безоблачно+26°C54 %758 мм1.1 м/с2 %
    21:00Ясно и безоблачно+20°C92 %758 мм0.7 м/с2 %
  • 25июля
    Четверг
    +14°
    +28°
    Ясно и безоблачно
    ВремяПогодаТемператураВлажностьДавлениеВетер, м/сВероятность осадков
    00:00Ясно и безоблачно+16°C84 %758 мм2.2 м/с2 %
    03:00Ясно и безоблачно+15°C85 %758 мм1.9 м/с2 %
    06:00Ясно и безоблачно+17°C89 %758 мм0.9 м/с2 %
    09:00Ясно и безоблачно+23°C71 %758 мм0.4 м/с2 %
    12:00Практически безоблачно+27°C55 %758 мм1.2 м/с8 %
    15:00Ясно и безоблачно+27°C49 %757 мм1.9 м/с11 %
    18:00Ясно и безоблачно+27°C54 %757 мм1.3 м/с11 %
    21:00Ясно и безоблачно+22°C84 %757 мм1.1 м/с3 %
Мы используем cookies
Соглашаюсь